<?xml version="1.0" encoding="UTF-8" standalone="no" ?>
<gpx xmlns="http://www.topografix.com/GPX/1/1" xmlns:xsi="http://www.w3.org/2001/XMLSchema-instance" xsi:schemaLocation="http://www.topografix.com/GPX/1/1 http://www.topografix.com/GPX/1/1/gpx.xsd" version="1.1" creator="VisuGPX - https://www.visugpx.com">
  <metadata>
    <name>83 - Flayosc - Sauveclare - Martelle</name>
    <desc><![CDATA[Flayosc - Sauveclare - Martelle]]></desc>
  </metadata>
  <wpt lat="43.52986" lon="6.37877">
    <ele>281.55</ele>
    <name><![CDATA[WPT_0000016]]></name>
    <desc><![CDATA[]]></desc>
    <type><![CDATA[Photo]]></type>
  </wpt>
  <wpt lat="43.52987" lon="6.37876">
    <ele>280.64</ele>
    <name><![CDATA[WPT_0000017]]></name>
    <desc><![CDATA[]]></desc>
    <type><![CDATA[Photo]]></type>
  </wpt>
  <wpt lat="43.52989" lon="6.37883">
    <ele>279.93</ele>
    <name><![CDATA[WPT_0000018]]></name>
    <desc><![CDATA[]]></desc>
    <type><![CDATA[Photo]]></type>
  </wpt>
  <trk>
    <name><![CDATA[flayosc]]></name>
    <desc><![CDATA[<h1>OruxMaps</h1><br /><hr align="center" width="480" style="height: 2px; width: 517px"/><h2>Nom: flayosc</h2><br /><p>Temps de départ: 09/14/2015 08:36</p><p>Temps d'arrivée: 09/14/2015 11:17</p><p>Distance: 8,9km (02:40)</p><p>Temps déplacement: 02:07</p><p>Vitesse moyenne: 3,3km/h</p><p>Vitesse moyenne: 4,2km/h</p><p>Vitess Max.: 6,2km/h</p><p>Altitude minimale: 200m</p><p>Altitude maximale: 337m</p><p>Vitesse d'élévation: 221,3m/h</p><p>Vitesse de descente: -182,4m/h</p><p>Gain Altitude: 274m</p><p>Perte Altitude: -193m</p><p>Temps d'élévation: 01:14</p><p>Temps de descente: 01:03</p><hr align="center" width="480" style="height: 2px; width: 517px"/>]]></desc>
    <trkseg>
      <trkpt lat="43.53578" lon="6.39132">
        <ele>241.45</ele>
        <time>2015-09-14T06:36:54Z</time>
      </trkpt>
      <trkpt lat="43.53552" lon="6.39189">
        <ele>286.89</ele>
        <time>2015-09-14T06:36:55Z</time>
      </trkpt>
      <trkpt lat="43.53534" lon="6.39195">
        <ele>316.88</ele>
        <time>2015-09-14T06:41:40Z</time>
      </trkpt>
      <trkpt lat="43.5352" lon="6.39213">
        <ele>318.77</ele>
        <time>2015-09-14T06:41:53Z</time>
      </trkpt>
      <trkpt lat="43.53507" lon="6.39231">
        <ele>321.5</ele>
        <time>2015-09-14T06:42:23Z</time>
      </trkpt>
      <trkpt lat="43.53497" lon="6.39252">
        <ele>323.12</ele>
        <time>2015-09-14T06:42:40Z</time>
      </trkpt>
      <trkpt lat="43.53487" lon="6.39274">
        <ele>323.83</ele>
        <time>2015-09-14T06:42:59Z</time>
      </trkpt>
      <trkpt lat="43.53479" lon="6.39297">
        <ele>324.45</ele>
        <time>2015-09-14T06:43:13Z</time>
      </trkpt>
      <trkpt lat="43.53475" lon="6.39322">
        <ele>325.75</ele>
        <time>2015-09-14T06:43:28Z</time>
      </trkpt>
      <trkpt lat="43.53472" lon="6.39297">
        <ele>325.45</ele>
        <time>2015-09-14T06:44:08Z</time>
      </trkpt>
      <trkpt lat="43.53473" lon="6.39271">
        <ele>326.96</ele>
        <time>2015-09-14T06:44:28Z</time>
      </trkpt>
      <trkpt lat="43.53465" lon="6.39248">
        <ele>326.78</ele>
        <time>2015-09-14T06:44:46Z</time>
      </trkpt>
      <trkpt lat="43.53448" lon="6.39238">
        <ele>328.98</ele>
        <time>2015-09-14T06:45:09Z</time>
      </trkpt>
      <trkpt lat="43.53431" lon="6.39247">
        <ele>329.96</ele>
        <time>2015-09-14T06:45:28Z</time>
      </trkpt>
      <trkpt lat="43.53414" lon="6.39256">
        <ele>331.44</ele>
        <time>2015-09-14T06:45:47Z</time>
      </trkpt>
      <trkpt lat="43.53397" lon="6.39266">
        <ele>333.16</ele>
        <time>2015-09-14T06:46:04Z</time>
      </trkpt>
      <trkpt lat="43.53379" lon="6.39275">
        <ele>333.69</ele>
        <time>2015-09-14T06:46:21Z</time>
      </trkpt>
      <trkpt lat="43.53362" lon="6.39286">
        <ele>334.67</ele>
        <time>2015-09-14T06:46:35Z</time>
      </trkpt>
      <trkpt lat="43.53345" lon="6.39295">
        <ele>335.7</ele>
        <time>2015-09-14T06:46:51Z</time>
      </trkpt>
      <trkpt lat="43.53328" lon="6.39304">
        <ele>336.21</ele>
        <time>2015-09-14T06:47:07Z</time>
      </trkpt>
      <trkpt lat="43.53312" lon="6.39317">
        <ele>336.04</ele>
        <time>2015-09-14T06:47:23Z</time>
      </trkpt>
      <trkpt lat="43.53296" lon="6.39329">
        <ele>336.07</ele>
        <time>2015-09-14T06:47:39Z</time>
      </trkpt>
      <trkpt lat="43.53278" lon="6.39338">
        <ele>336.68</ele>
        <time>2015-09-14T06:47:57Z</time>
      </trkpt>
      <trkpt lat="43.53263" lon="6.39324">
        <ele>337.42</ele>
        <time>2015-09-14T06:48:14Z</time>
      </trkpt>
      <trkpt lat="43.53252" lon="6.39302">
        <ele>337.82</ele>
        <time>2015-09-14T06:48:33Z</time>
      </trkpt>
      <trkpt lat="43.53244" lon="6.39279">
        <ele>337.54</ele>
        <time>2015-09-14T06:48:48Z</time>
      </trkpt>
      <trkpt lat="43.53235" lon="6.39257">
        <ele>336.8</ele>
        <time>2015-09-14T06:49:04Z</time>
      </trkpt>
      <trkpt lat="43.53225" lon="6.39236">
        <ele>337.06</ele>
        <time>2015-09-14T06:49:20Z</time>
      </trkpt>
      <trkpt lat="43.53214" lon="6.39216">
        <ele>337.33</ele>
        <time>2015-09-14T06:49:36Z</time>
      </trkpt>
      <trkpt lat="43.53202" lon="6.39197">
        <ele>337.05</ele>
        <time>2015-09-14T06:49:50Z</time>
      </trkpt>
      <trkpt lat="43.5319" lon="6.39178">
        <ele>336.64</ele>
        <time>2015-09-14T06:50:06Z</time>
      </trkpt>
      <trkpt lat="43.53177" lon="6.3916">
        <ele>336.07</ele>
        <time>2015-09-14T06:50:24Z</time>
      </trkpt>
      <trkpt lat="43.53162" lon="6.39144">
        <ele>335.64</ele>
        <time>2015-09-14T06:50:41Z</time>
      </trkpt>
      <trkpt lat="43.53147" lon="6.39129">
        <ele>334.63</ele>
        <time>2015-09-14T06:50:57Z</time>
      </trkpt>
      <trkpt lat="43.53132" lon="6.39112">
        <ele>333.09</ele>
        <time>2015-09-14T06:51:15Z</time>
      </trkpt>
      <trkpt lat="43.53118" lon="6.39097">
        <ele>329.99</ele>
        <time>2015-09-14T06:53:09Z</time>
      </trkpt>
      <trkpt lat="43.53102" lon="6.39083">
        <ele>329.1</ele>
        <time>2015-09-14T06:53:25Z</time>
      </trkpt>
      <trkpt lat="43.53086" lon="6.3907">
        <ele>327.66</ele>
        <time>2015-09-14T06:53:44Z</time>
      </trkpt>
      <trkpt lat="43.53071" lon="6.39055">
        <ele>326.79</ele>
        <time>2015-09-14T06:54:02Z</time>
      </trkpt>
      <trkpt lat="43.53055" lon="6.39045">
        <ele>325.31</ele>
        <time>2015-09-14T06:54:18Z</time>
      </trkpt>
      <trkpt lat="43.53038" lon="6.39031">
        <ele>323.49</ele>
        <time>2015-09-14T06:54:36Z</time>
      </trkpt>
      <trkpt lat="43.53022" lon="6.39021">
        <ele>322.46</ele>
        <time>2015-09-14T06:54:51Z</time>
      </trkpt>
      <trkpt lat="43.53006" lon="6.39034">
        <ele>321.37</ele>
        <time>2015-09-14T06:55:03Z</time>
      </trkpt>
      <trkpt lat="43.5299" lon="6.39047">
        <ele>320.38</ele>
        <time>2015-09-14T06:55:19Z</time>
      </trkpt>
      <trkpt lat="43.52975" lon="6.3906">
        <ele>319.14</ele>
        <time>2015-09-14T06:55:35Z</time>
      </trkpt>
      <trkpt lat="43.52958" lon="6.39073">
        <ele>318.99</ele>
        <time>2015-09-14T06:55:51Z</time>
      </trkpt>
      <trkpt lat="43.52941" lon="6.39084">
        <ele>318.24</ele>
        <time>2015-09-14T06:56:06Z</time>
      </trkpt>
      <trkpt lat="43.52925" lon="6.39096">
        <ele>317.13</ele>
        <time>2015-09-14T06:56:22Z</time>
      </trkpt>
      <trkpt lat="43.52907" lon="6.39104">
        <ele>316.5</ele>
        <time>2015-09-14T06:56:38Z</time>
      </trkpt>
      <trkpt lat="43.52891" lon="6.39117">
        <ele>316.52</ele>
        <time>2015-09-14T06:56:53Z</time>
      </trkpt>
      <trkpt lat="43.52874" lon="6.39106">
        <ele>316.74</ele>
        <time>2015-09-14T06:57:10Z</time>
      </trkpt>
      <trkpt lat="43.52855" lon="6.39109">
        <ele>317.4</ele>
        <time>2015-09-14T06:57:25Z</time>
      </trkpt>
      <trkpt lat="43.52841" lon="6.39126">
        <ele>316.64</ele>
        <time>2015-09-14T06:57:39Z</time>
      </trkpt>
      <trkpt lat="43.52824" lon="6.39136">
        <ele>316.16</ele>
        <time>2015-09-14T06:57:53Z</time>
      </trkpt>
      <trkpt lat="43.52807" lon="6.39147">
        <ele>314.85</ele>
        <time>2015-09-14T06:58:09Z</time>
      </trkpt>
      <trkpt lat="43.52789" lon="6.39154">
        <ele>313.91</ele>
        <time>2015-09-14T06:58:24Z</time>
      </trkpt>
      <trkpt lat="43.52773" lon="6.39164">
        <ele>313.05</ele>
        <time>2015-09-14T06:58:41Z</time>
      </trkpt>
      <trkpt lat="43.52774" lon="6.3919">
        <ele>312.09</ele>
        <time>2015-09-14T06:58:54Z</time>
      </trkpt>
      <trkpt lat="43.52772" lon="6.39215">
        <ele>310.42</ele>
        <time>2015-09-14T06:59:10Z</time>
      </trkpt>
      <trkpt lat="43.52754" lon="6.39221">
        <ele>309.67</ele>
        <time>2015-09-14T06:59:39Z</time>
      </trkpt>
      <trkpt lat="43.52739" lon="6.39235">
        <ele>308.23</ele>
        <time>2015-09-14T06:59:54Z</time>
      </trkpt>
      <trkpt lat="43.52722" lon="6.39247">
        <ele>306.36</ele>
        <time>2015-09-14T07:00:08Z</time>
      </trkpt>
      <trkpt lat="43.52704" lon="6.39255">
        <ele>304.91</ele>
        <time>2015-09-14T07:00:24Z</time>
      </trkpt>
      <trkpt lat="43.52688" lon="6.39265">
        <ele>305.43</ele>
        <time>2015-09-14T07:00:40Z</time>
      </trkpt>
      <trkpt lat="43.52672" lon="6.39279">
        <ele>304.25</ele>
        <time>2015-09-14T07:00:58Z</time>
      </trkpt>
      <trkpt lat="43.52654" lon="6.39286">
        <ele>301.72</ele>
        <time>2015-09-14T07:01:16Z</time>
      </trkpt>
      <trkpt lat="43.52637" lon="6.39294">
        <ele>300.07</ele>
        <time>2015-09-14T07:01:31Z</time>
      </trkpt>
      <trkpt lat="43.5262" lon="6.39305">
        <ele>299.53</ele>
        <time>2015-09-14T07:01:45Z</time>
      </trkpt>
      <trkpt lat="43.52605" lon="6.3932">
        <ele>298.19</ele>
        <time>2015-09-14T07:01:59Z</time>
      </trkpt>
      <trkpt lat="43.52588" lon="6.39314">
        <ele>296.63</ele>
        <time>2015-09-14T07:02:17Z</time>
      </trkpt>
      <trkpt lat="43.52569" lon="6.39317">
        <ele>295.58</ele>
        <time>2015-09-14T07:02:33Z</time>
      </trkpt>
      <trkpt lat="43.52552" lon="6.39327">
        <ele>294.54</ele>
        <time>2015-09-14T07:02:49Z</time>
      </trkpt>
      <trkpt lat="43.52536" lon="6.39339">
        <ele>293.86</ele>
        <time>2015-09-14T07:03:02Z</time>
      </trkpt>
      <trkpt lat="43.5252" lon="6.39352">
        <ele>293.06</ele>
        <time>2015-09-14T07:03:18Z</time>
      </trkpt>
      <trkpt lat="43.52503" lon="6.39363">
        <ele>293.36</ele>
        <time>2015-09-14T07:03:31Z</time>
      </trkpt>
      <trkpt lat="43.52485" lon="6.39366">
        <ele>292.61</ele>
        <time>2015-09-14T07:03:48Z</time>
      </trkpt>
      <trkpt lat="43.52474" lon="6.39343">
        <ele>291.52</ele>
        <time>2015-09-14T07:04:03Z</time>
      </trkpt>
      <trkpt lat="43.52467" lon="6.39321">
        <ele>290.2</ele>
        <time>2015-09-14T07:04:18Z</time>
      </trkpt>
      <trkpt lat="43.5246" lon="6.39297">
        <ele>290.25</ele>
        <time>2015-09-14T07:04:35Z</time>
      </trkpt>
      <trkpt lat="43.52442" lon="6.39288">
        <ele>289.46</ele>
        <time>2015-09-14T07:04:50Z</time>
      </trkpt>
      <trkpt lat="43.52425" lon="6.39276">
        <ele>288</ele>
        <time>2015-09-14T07:05:06Z</time>
      </trkpt>
      <trkpt lat="43.52413" lon="6.39257">
        <ele>287.06</ele>
        <time>2015-09-14T07:05:22Z</time>
      </trkpt>
      <trkpt lat="43.52401" lon="6.39238">
        <ele>286.14</ele>
        <time>2015-09-14T07:05:38Z</time>
      </trkpt>
      <trkpt lat="43.5239" lon="6.39218">
        <ele>286.17</ele>
        <time>2015-09-14T07:05:53Z</time>
      </trkpt>
      <trkpt lat="43.5238" lon="6.39197">
        <ele>287.17</ele>
        <time>2015-09-14T07:06:06Z</time>
      </trkpt>
      <trkpt lat="43.52363" lon="6.39205">
        <ele>286.48</ele>
        <time>2015-09-14T07:06:20Z</time>
      </trkpt>
      <trkpt lat="43.52352" lon="6.39226">
        <ele>285.48</ele>
        <time>2015-09-14T07:06:35Z</time>
      </trkpt>
      <trkpt lat="43.52339" lon="6.39244">
        <ele>285.1</ele>
        <time>2015-09-14T07:06:49Z</time>
      </trkpt>
      <trkpt lat="43.52324" lon="6.39258">
        <ele>283.84</ele>
        <time>2015-09-14T07:07:05Z</time>
      </trkpt>
      <trkpt lat="43.5231" lon="6.39274">
        <ele>282.41</ele>
        <time>2015-09-14T07:07:19Z</time>
      </trkpt>
      <trkpt lat="43.52296" lon="6.39293">
        <ele>280.8</ele>
        <time>2015-09-14T07:07:35Z</time>
      </trkpt>
      <trkpt lat="43.52284" lon="6.39312">
        <ele>280.34</ele>
        <time>2015-09-14T07:07:49Z</time>
      </trkpt>
      <trkpt lat="43.52271" lon="6.39331">
        <ele>279.74</ele>
        <time>2015-09-14T07:08:05Z</time>
      </trkpt>
      <trkpt lat="43.52259" lon="6.39351">
        <ele>279.18</ele>
        <time>2015-09-14T07:08:22Z</time>
      </trkpt>
      <trkpt lat="43.52245" lon="6.3937">
        <ele>278.24</ele>
        <time>2015-09-14T07:08:38Z</time>
      </trkpt>
      <trkpt lat="43.52233" lon="6.39389">
        <ele>277.36</ele>
        <time>2015-09-14T07:08:55Z</time>
      </trkpt>
      <trkpt lat="43.52223" lon="6.39411">
        <ele>277.71</ele>
        <time>2015-09-14T07:09:12Z</time>
      </trkpt>
      <trkpt lat="43.52212" lon="6.39431">
        <ele>278.16</ele>
        <time>2015-09-14T07:09:28Z</time>
      </trkpt>
      <trkpt lat="43.52198" lon="6.39448">
        <ele>277.85</ele>
        <time>2015-09-14T07:12:24Z</time>
      </trkpt>
      <trkpt lat="43.52182" lon="6.3946">
        <ele>277.55</ele>
        <time>2015-09-14T07:12:37Z</time>
      </trkpt>
      <trkpt lat="43.52167" lon="6.39474">
        <ele>277.51</ele>
        <time>2015-09-14T07:12:53Z</time>
      </trkpt>
      <trkpt lat="43.52149" lon="6.39487">
        <ele>277.55</ele>
        <time>2015-09-14T07:13:10Z</time>
      </trkpt>
      <trkpt lat="43.52133" lon="6.39499">
        <ele>277.02</ele>
        <time>2015-09-14T07:13:27Z</time>
      </trkpt>
      <trkpt lat="43.5212" lon="6.39517">
        <ele>276.24</ele>
        <time>2015-09-14T07:13:42Z</time>
      </trkpt>
      <trkpt lat="43.52106" lon="6.39536">
        <ele>274.62</ele>
        <time>2015-09-14T07:14:00Z</time>
      </trkpt>
      <trkpt lat="43.52088" lon="6.39532">
        <ele>273.73</ele>
        <time>2015-09-14T07:14:16Z</time>
      </trkpt>
      <trkpt lat="43.5207" lon="6.3953">
        <ele>273.28</ele>
        <time>2015-09-14T07:14:33Z</time>
      </trkpt>
      <trkpt lat="43.52052" lon="6.39535">
        <ele>271.45</ele>
        <time>2015-09-14T07:14:48Z</time>
      </trkpt>
      <trkpt lat="43.52036" lon="6.39547">
        <ele>270.22</ele>
        <time>2015-09-14T07:15:02Z</time>
      </trkpt>
      <trkpt lat="43.52021" lon="6.39562">
        <ele>269.6</ele>
        <time>2015-09-14T07:15:19Z</time>
      </trkpt>
      <trkpt lat="43.52006" lon="6.39577">
        <ele>268.31</ele>
        <time>2015-09-14T07:15:36Z</time>
      </trkpt>
      <trkpt lat="43.51987" lon="6.39579">
        <ele>267.81</ele>
        <time>2015-09-14T07:15:50Z</time>
      </trkpt>
      <trkpt lat="43.5197" lon="6.39569">
        <ele>268.47</ele>
        <time>2015-09-14T07:16:06Z</time>
      </trkpt>
      <trkpt lat="43.51954" lon="6.39555">
        <ele>269.07</ele>
        <time>2015-09-14T07:16:22Z</time>
      </trkpt>
      <trkpt lat="43.51936" lon="6.39556">
        <ele>268.63</ele>
        <time>2015-09-14T07:16:36Z</time>
      </trkpt>
      <trkpt lat="43.51921" lon="6.39571">
        <ele>267.53</ele>
        <time>2015-09-14T07:16:52Z</time>
      </trkpt>
      <trkpt lat="43.51905" lon="6.39585">
        <ele>267.17</ele>
        <time>2015-09-14T07:17:07Z</time>
      </trkpt>
      <trkpt lat="43.51895" lon="6.39606">
        <ele>266.56</ele>
        <time>2015-09-14T07:17:24Z</time>
      </trkpt>
      <trkpt lat="43.51883" lon="6.39626">
        <ele>265.88</ele>
        <time>2015-09-14T07:17:40Z</time>
      </trkpt>
      <trkpt lat="43.51869" lon="6.39643">
        <ele>265.3</ele>
        <time>2015-09-14T07:17:56Z</time>
      </trkpt>
      <trkpt lat="43.51854" lon="6.39659">
        <ele>264.95</ele>
        <time>2015-09-14T07:18:12Z</time>
      </trkpt>
      <trkpt lat="43.51838" lon="6.39674">
        <ele>264.63</ele>
        <time>2015-09-14T07:18:28Z</time>
      </trkpt>
      <trkpt lat="43.5182" lon="6.39684">
        <ele>264.18</ele>
        <time>2015-09-14T07:18:45Z</time>
      </trkpt>
      <trkpt lat="43.51803" lon="6.39695">
        <ele>263.87</ele>
        <time>2015-09-14T07:19:01Z</time>
      </trkpt>
      <trkpt lat="43.51785" lon="6.39699">
        <ele>263.58</ele>
        <time>2015-09-14T07:19:17Z</time>
      </trkpt>
      <trkpt lat="43.51765" lon="6.397">
        <ele>262.76</ele>
        <time>2015-09-14T07:19:33Z</time>
      </trkpt>
      <trkpt lat="43.51748" lon="6.39702">
        <ele>262.51</ele>
        <time>2015-09-14T07:19:47Z</time>
      </trkpt>
      <trkpt lat="43.51729" lon="6.39707">
        <ele>262.54</ele>
        <time>2015-09-14T07:20:05Z</time>
      </trkpt>
      <trkpt lat="43.51711" lon="6.39709">
        <ele>262.41</ele>
        <time>2015-09-14T07:20:23Z</time>
      </trkpt>
      <trkpt lat="43.51693" lon="6.39712">
        <ele>262.2</ele>
        <time>2015-09-14T07:20:39Z</time>
      </trkpt>
      <trkpt lat="43.51676" lon="6.3972">
        <ele>261.28</ele>
        <time>2015-09-14T07:20:59Z</time>
      </trkpt>
      <trkpt lat="43.51657" lon="6.39726">
        <ele>259.76</ele>
        <time>2015-09-14T07:21:17Z</time>
      </trkpt>
      <trkpt lat="43.5164" lon="6.39735">
        <ele>256.42</ele>
        <time>2015-09-14T07:21:36Z</time>
      </trkpt>
      <trkpt lat="43.51622" lon="6.3973">
        <ele>253.25</ele>
        <time>2015-09-14T07:21:55Z</time>
      </trkpt>
      <trkpt lat="43.51605" lon="6.39718">
        <ele>251.38</ele>
        <time>2015-09-14T07:22:14Z</time>
      </trkpt>
      <trkpt lat="43.51588" lon="6.3971">
        <ele>249.29</ele>
        <time>2015-09-14T07:22:35Z</time>
      </trkpt>
      <trkpt lat="43.5157" lon="6.39702">
        <ele>245.84</ele>
        <time>2015-09-14T07:22:57Z</time>
      </trkpt>
      <trkpt lat="43.51567" lon="6.39677">
        <ele>238.45</ele>
        <time>2015-09-14T07:27:58Z</time>
      </trkpt>
      <trkpt lat="43.5157" lon="6.39652">
        <ele>237.58</ele>
        <time>2015-09-14T07:28:17Z</time>
      </trkpt>
      <trkpt lat="43.51569" lon="6.39627">
        <ele>237.27</ele>
        <time>2015-09-14T07:28:35Z</time>
      </trkpt>
      <trkpt lat="43.51571" lon="6.39601">
        <ele>235.64</ele>
        <time>2015-09-14T07:28:52Z</time>
      </trkpt>
      <trkpt lat="43.5157" lon="6.39576">
        <ele>233.52</ele>
        <time>2015-09-14T07:29:14Z</time>
      </trkpt>
      <trkpt lat="43.51578" lon="6.39555">
        <ele>232.51</ele>
        <time>2015-09-14T07:29:31Z</time>
      </trkpt>
      <trkpt lat="43.51583" lon="6.3953">
        <ele>230.88</ele>
        <time>2015-09-14T07:29:46Z</time>
      </trkpt>
      <trkpt lat="43.51596" lon="6.39512">
        <ele>229.23</ele>
        <time>2015-09-14T07:30:03Z</time>
      </trkpt>
      <trkpt lat="43.51611" lon="6.39495">
        <ele>227.93</ele>
        <time>2015-09-14T07:30:22Z</time>
      </trkpt>
      <trkpt lat="43.51625" lon="6.3948">
        <ele>226.58</ele>
        <time>2015-09-14T07:30:40Z</time>
      </trkpt>
      <trkpt lat="43.51642" lon="6.39473">
        <ele>226.65</ele>
        <time>2015-09-14T07:30:59Z</time>
      </trkpt>
      <trkpt lat="43.51656" lon="6.39457">
        <ele>227.54</ele>
        <time>2015-09-14T07:31:11Z</time>
      </trkpt>
      <trkpt lat="43.51668" lon="6.39437">
        <ele>226.83</ele>
        <time>2015-09-14T07:31:26Z</time>
      </trkpt>
      <trkpt lat="43.51682" lon="6.3942">
        <ele>225.49</ele>
        <time>2015-09-14T07:31:40Z</time>
      </trkpt>
      <trkpt lat="43.51696" lon="6.39401">
        <ele>223.42</ele>
        <time>2015-09-14T07:32:00Z</time>
      </trkpt>
      <trkpt lat="43.51709" lon="6.39384">
        <ele>222.48</ele>
        <time>2015-09-14T07:32:15Z</time>
      </trkpt>
      <trkpt lat="43.51723" lon="6.39367">
        <ele>221.25</ele>
        <time>2015-09-14T07:32:29Z</time>
      </trkpt>
      <trkpt lat="43.51732" lon="6.39345">
        <ele>218.91</ele>
        <time>2015-09-14T07:32:46Z</time>
      </trkpt>
      <trkpt lat="43.51736" lon="6.3932">
        <ele>216.96</ele>
        <time>2015-09-14T07:33:02Z</time>
      </trkpt>
      <trkpt lat="43.51738" lon="6.39295">
        <ele>215.39</ele>
        <time>2015-09-14T07:33:18Z</time>
      </trkpt>
      <trkpt lat="43.51739" lon="6.3927">
        <ele>214.04</ele>
        <time>2015-09-14T07:33:33Z</time>
      </trkpt>
      <trkpt lat="43.51738" lon="6.39243">
        <ele>213.32</ele>
        <time>2015-09-14T07:33:50Z</time>
      </trkpt>
      <trkpt lat="43.51734" lon="6.39218">
        <ele>212.42</ele>
        <time>2015-09-14T07:34:06Z</time>
      </trkpt>
      <trkpt lat="43.5173" lon="6.39193">
        <ele>211.6</ele>
        <time>2015-09-14T07:34:20Z</time>
      </trkpt>
      <trkpt lat="43.51721" lon="6.3917">
        <ele>210.74</ele>
        <time>2015-09-14T07:34:36Z</time>
      </trkpt>
      <trkpt lat="43.51708" lon="6.39151">
        <ele>209.99</ele>
        <time>2015-09-14T07:34:53Z</time>
      </trkpt>
      <trkpt lat="43.51695" lon="6.39133">
        <ele>208.91</ele>
        <time>2015-09-14T07:35:09Z</time>
      </trkpt>
      <trkpt lat="43.51679" lon="6.39118">
        <ele>208.89</ele>
        <time>2015-09-14T07:35:24Z</time>
      </trkpt>
      <trkpt lat="43.51663" lon="6.39107">
        <ele>209.36</ele>
        <time>2015-09-14T07:35:37Z</time>
      </trkpt>
      <trkpt lat="43.51645" lon="6.39097">
        <ele>209.42</ele>
        <time>2015-09-14T07:35:54Z</time>
      </trkpt>
      <trkpt lat="43.51629" lon="6.39087">
        <ele>209.84</ele>
        <time>2015-09-14T07:36:09Z</time>
      </trkpt>
      <trkpt lat="43.51611" lon="6.39082">
        <ele>209.82</ele>
        <time>2015-09-14T07:36:26Z</time>
      </trkpt>
      <trkpt lat="43.51593" lon="6.39076">
        <ele>209.71</ele>
        <time>2015-09-14T07:36:40Z</time>
      </trkpt>
      <trkpt lat="43.51575" lon="6.3907">
        <ele>209.65</ele>
        <time>2015-09-14T07:36:53Z</time>
      </trkpt>
      <trkpt lat="43.51557" lon="6.39066">
        <ele>208.7</ele>
        <time>2015-09-14T07:37:10Z</time>
      </trkpt>
      <trkpt lat="43.51538" lon="6.39063">
        <ele>207.22</ele>
        <time>2015-09-14T07:37:24Z</time>
      </trkpt>
      <trkpt lat="43.5152" lon="6.39057">
        <ele>206.72</ele>
        <time>2015-09-14T07:37:39Z</time>
      </trkpt>
      <trkpt lat="43.51502" lon="6.39051">
        <ele>205.82</ele>
        <time>2015-09-14T07:37:56Z</time>
      </trkpt>
      <trkpt lat="43.51485" lon="6.3904">
        <ele>205.52</ele>
        <time>2015-09-14T07:38:11Z</time>
      </trkpt>
      <trkpt lat="43.51469" lon="6.39026">
        <ele>205.23</ele>
        <time>2015-09-14T07:38:27Z</time>
      </trkpt>
      <trkpt lat="43.51454" lon="6.3901">
        <ele>204.28</ele>
        <time>2015-09-14T07:38:43Z</time>
      </trkpt>
      <trkpt lat="43.51441" lon="6.38991">
        <ele>203.19</ele>
        <time>2015-09-14T07:39:00Z</time>
      </trkpt>
      <trkpt lat="43.51432" lon="6.38969">
        <ele>202.15</ele>
        <time>2015-09-14T07:39:15Z</time>
      </trkpt>
      <trkpt lat="43.51423" lon="6.38945">
        <ele>201.64</ele>
        <time>2015-09-14T07:39:30Z</time>
      </trkpt>
      <trkpt lat="43.51418" lon="6.3892">
        <ele>201.16</ele>
        <time>2015-09-14T07:39:46Z</time>
      </trkpt>
      <trkpt lat="43.51413" lon="6.38895">
        <ele>202.13</ele>
        <time>2015-09-14T07:40:03Z</time>
      </trkpt>
      <trkpt lat="43.51413" lon="6.38869">
        <ele>202.11</ele>
        <time>2015-09-14T07:40:18Z</time>
      </trkpt>
      <trkpt lat="43.51415" lon="6.38844">
        <ele>201.38</ele>
        <time>2015-09-14T07:40:33Z</time>
      </trkpt>
      <trkpt lat="43.5142" lon="6.38819">
        <ele>200.65</ele>
        <time>2015-09-14T07:40:49Z</time>
      </trkpt>
      <trkpt lat="43.51428" lon="6.38795">
        <ele>200.29</ele>
        <time>2015-09-14T07:41:06Z</time>
      </trkpt>
      <trkpt lat="43.51435" lon="6.38772">
        <ele>200.39</ele>
        <time>2015-09-14T07:41:21Z</time>
      </trkpt>
      <trkpt lat="43.51447" lon="6.38751">
        <ele>200.26</ele>
        <time>2015-09-14T07:41:38Z</time>
      </trkpt>
      <trkpt lat="43.5146" lon="6.38731">
        <ele>200.74</ele>
        <time>2015-09-14T07:41:54Z</time>
      </trkpt>
      <trkpt lat="43.51475" lon="6.38715">
        <ele>201.01</ele>
        <time>2015-09-14T07:42:09Z</time>
      </trkpt>
      <trkpt lat="43.51488" lon="6.38698">
        <ele>201.38</ele>
        <time>2015-09-14T07:42:24Z</time>
      </trkpt>
      <trkpt lat="43.515" lon="6.38679">
        <ele>201.69</ele>
        <time>2015-09-14T07:42:39Z</time>
      </trkpt>
      <trkpt lat="43.51512" lon="6.38658">
        <ele>202.35</ele>
        <time>2015-09-14T07:42:55Z</time>
      </trkpt>
      <trkpt lat="43.5152" lon="6.38635">
        <ele>203.21</ele>
        <time>2015-09-14T07:43:10Z</time>
      </trkpt>
      <trkpt lat="43.51528" lon="6.38611">
        <ele>203.23</ele>
        <time>2015-09-14T07:43:25Z</time>
      </trkpt>
      <trkpt lat="43.51531" lon="6.38585">
        <ele>203.1</ele>
        <time>2015-09-14T07:43:43Z</time>
      </trkpt>
      <trkpt lat="43.51533" lon="6.38559">
        <ele>203.74</ele>
        <time>2015-09-14T07:43:59Z</time>
      </trkpt>
      <trkpt lat="43.51533" lon="6.38534">
        <ele>204.43</ele>
        <time>2015-09-14T07:44:15Z</time>
      </trkpt>
      <trkpt lat="43.51527" lon="6.38508">
        <ele>205.02</ele>
        <time>2015-09-14T07:44:31Z</time>
      </trkpt>
      <trkpt lat="43.51523" lon="6.38483">
        <ele>205</ele>
        <time>2015-09-14T07:44:46Z</time>
      </trkpt>
      <trkpt lat="43.51517" lon="6.38459">
        <ele>206.09</ele>
        <time>2015-09-14T07:45:03Z</time>
      </trkpt>
      <trkpt lat="43.5151" lon="6.38436">
        <ele>205.29</ele>
        <time>2015-09-14T07:45:19Z</time>
      </trkpt>
      <trkpt lat="43.51505" lon="6.38412">
        <ele>204.71</ele>
        <time>2015-09-14T07:45:37Z</time>
      </trkpt>
      <trkpt lat="43.515" lon="6.38387">
        <ele>204.63</ele>
        <time>2015-09-14T07:45:52Z</time>
      </trkpt>
      <trkpt lat="43.51494" lon="6.38362">
        <ele>204.25</ele>
        <time>2015-09-14T07:46:09Z</time>
      </trkpt>
      <trkpt lat="43.51488" lon="6.38337">
        <ele>206.21</ele>
        <time>2015-09-14T07:46:27Z</time>
      </trkpt>
      <trkpt lat="43.51482" lon="6.38313">
        <ele>206.31</ele>
        <time>2015-09-14T07:46:40Z</time>
      </trkpt>
      <trkpt lat="43.51477" lon="6.38288">
        <ele>206.87</ele>
        <time>2015-09-14T07:46:58Z</time>
      </trkpt>
      <trkpt lat="43.51471" lon="6.38264">
        <ele>207.59</ele>
        <time>2015-09-14T07:47:13Z</time>
      </trkpt>
      <trkpt lat="43.5147" lon="6.38238">
        <ele>208.03</ele>
        <time>2015-09-14T07:47:32Z</time>
      </trkpt>
      <trkpt lat="43.5147" lon="6.38213">
        <ele>208.43</ele>
        <time>2015-09-14T07:47:48Z</time>
      </trkpt>
      <trkpt lat="43.51473" lon="6.38188">
        <ele>208.53</ele>
        <time>2015-09-14T07:48:04Z</time>
      </trkpt>
      <trkpt lat="43.51479" lon="6.38164">
        <ele>209.04</ele>
        <time>2015-09-14T07:48:22Z</time>
      </trkpt>
      <trkpt lat="43.51486" lon="6.3814">
        <ele>208.72</ele>
        <time>2015-09-14T07:48:38Z</time>
      </trkpt>
      <trkpt lat="43.51494" lon="6.38117">
        <ele>208.57</ele>
        <time>2015-09-14T07:48:55Z</time>
      </trkpt>
      <trkpt lat="43.51501" lon="6.38093">
        <ele>208.34</ele>
        <time>2015-09-14T07:49:11Z</time>
      </trkpt>
      <trkpt lat="43.51507" lon="6.3807">
        <ele>207.78</ele>
        <time>2015-09-14T07:49:28Z</time>
      </trkpt>
      <trkpt lat="43.51511" lon="6.38044">
        <ele>207.67</ele>
        <time>2015-09-14T07:49:43Z</time>
      </trkpt>
      <trkpt lat="43.51511" lon="6.38019">
        <ele>207.92</ele>
        <time>2015-09-14T07:50:00Z</time>
      </trkpt>
      <trkpt lat="43.51509" lon="6.37993">
        <ele>208.17</ele>
        <time>2015-09-14T07:50:16Z</time>
      </trkpt>
      <trkpt lat="43.51505" lon="6.37968">
        <ele>208.16</ele>
        <time>2015-09-14T07:50:32Z</time>
      </trkpt>
      <trkpt lat="43.51503" lon="6.37942">
        <ele>209.72</ele>
        <time>2015-09-14T07:50:49Z</time>
      </trkpt>
      <trkpt lat="43.51499" lon="6.37917">
        <ele>209.35</ele>
        <time>2015-09-14T07:51:35Z</time>
      </trkpt>
      <trkpt lat="43.51517" lon="6.37914">
        <ele>210.34</ele>
        <time>2015-09-14T08:05:55Z</time>
      </trkpt>
      <trkpt lat="43.5153" lon="6.37896">
        <ele>212.21</ele>
        <time>2015-09-14T08:06:14Z</time>
      </trkpt>
      <trkpt lat="43.51545" lon="6.37881">
        <ele>213.14</ele>
        <time>2015-09-14T08:06:31Z</time>
      </trkpt>
      <trkpt lat="43.51562" lon="6.37872">
        <ele>215.6</ele>
        <time>2015-09-14T08:06:52Z</time>
      </trkpt>
      <trkpt lat="43.51574" lon="6.37853">
        <ele>216.97</ele>
        <time>2015-09-14T08:07:16Z</time>
      </trkpt>
      <trkpt lat="43.51579" lon="6.37828">
        <ele>217.61</ele>
        <time>2015-09-14T08:07:32Z</time>
      </trkpt>
      <trkpt lat="43.51589" lon="6.37806">
        <ele>216.65</ele>
        <time>2015-09-14T08:07:50Z</time>
      </trkpt>
      <trkpt lat="43.51596" lon="6.37782">
        <ele>214.95</ele>
        <time>2015-09-14T08:08:07Z</time>
      </trkpt>
      <trkpt lat="43.51604" lon="6.37758">
        <ele>214.99</ele>
        <time>2015-09-14T08:08:24Z</time>
      </trkpt>
      <trkpt lat="43.51609" lon="6.37734">
        <ele>215.87</ele>
        <time>2015-09-14T08:08:39Z</time>
      </trkpt>
      <trkpt lat="43.51617" lon="6.3771">
        <ele>218.03</ele>
        <time>2015-09-14T08:08:59Z</time>
      </trkpt>
      <trkpt lat="43.51621" lon="6.37686">
        <ele>219.48</ele>
        <time>2015-09-14T08:09:14Z</time>
      </trkpt>
      <trkpt lat="43.51625" lon="6.3766">
        <ele>220.33</ele>
        <time>2015-09-14T08:09:30Z</time>
      </trkpt>
      <trkpt lat="43.51628" lon="6.37634">
        <ele>221.28</ele>
        <time>2015-09-14T08:09:49Z</time>
      </trkpt>
      <trkpt lat="43.51635" lon="6.37611">
        <ele>220.52</ele>
        <time>2015-09-14T08:10:07Z</time>
      </trkpt>
      <trkpt lat="43.51647" lon="6.3759">
        <ele>221.68</ele>
        <time>2015-09-14T08:10:22Z</time>
      </trkpt>
      <trkpt lat="43.51658" lon="6.3757">
        <ele>221.05</ele>
        <time>2015-09-14T08:10:40Z</time>
      </trkpt>
      <trkpt lat="43.51672" lon="6.37554">
        <ele>221.36</ele>
        <time>2015-09-14T08:11:03Z</time>
      </trkpt>
      <trkpt lat="43.51686" lon="6.37537">
        <ele>222.69</ele>
        <time>2015-09-14T08:11:20Z</time>
      </trkpt>
      <trkpt lat="43.51692" lon="6.37512">
        <ele>222.44</ele>
        <time>2015-09-14T08:11:35Z</time>
      </trkpt>
      <trkpt lat="43.51701" lon="6.3749">
        <ele>223</ele>
        <time>2015-09-14T08:11:53Z</time>
      </trkpt>
      <trkpt lat="43.51712" lon="6.37469">
        <ele>224.28</ele>
        <time>2015-09-14T08:12:08Z</time>
      </trkpt>
      <trkpt lat="43.51712" lon="6.37443">
        <ele>224.84</ele>
        <time>2015-09-14T08:12:25Z</time>
      </trkpt>
      <trkpt lat="43.51709" lon="6.37418">
        <ele>224.81</ele>
        <time>2015-09-14T08:12:42Z</time>
      </trkpt>
      <trkpt lat="43.51715" lon="6.37395">
        <ele>224.53</ele>
        <time>2015-09-14T08:13:02Z</time>
      </trkpt>
      <trkpt lat="43.51733" lon="6.37401">
        <ele>224.08</ele>
        <time>2015-09-14T08:13:16Z</time>
      </trkpt>
      <trkpt lat="43.5174" lon="6.37378">
        <ele>223.38</ele>
        <time>2015-09-14T08:13:30Z</time>
      </trkpt>
      <trkpt lat="43.5175" lon="6.37356">
        <ele>223.96</ele>
        <time>2015-09-14T08:13:50Z</time>
      </trkpt>
      <trkpt lat="43.51757" lon="6.37333">
        <ele>224.39</ele>
        <time>2015-09-14T08:14:08Z</time>
      </trkpt>
      <trkpt lat="43.51776" lon="6.37333">
        <ele>225.56</ele>
        <time>2015-09-14T08:14:31Z</time>
      </trkpt>
      <trkpt lat="43.51794" lon="6.37327">
        <ele>225.69</ele>
        <time>2015-09-14T08:14:46Z</time>
      </trkpt>
      <trkpt lat="43.51811" lon="6.37318">
        <ele>225.54</ele>
        <time>2015-09-14T08:15:04Z</time>
      </trkpt>
      <trkpt lat="43.51829" lon="6.37315">
        <ele>226.57</ele>
        <time>2015-09-14T08:15:20Z</time>
      </trkpt>
      <trkpt lat="43.51846" lon="6.37307">
        <ele>228.66</ele>
        <time>2015-09-14T08:15:37Z</time>
      </trkpt>
      <trkpt lat="43.51862" lon="6.37293">
        <ele>230.42</ele>
        <time>2015-09-14T08:15:57Z</time>
      </trkpt>
      <trkpt lat="43.51878" lon="6.37283">
        <ele>231.13</ele>
        <time>2015-09-14T08:16:19Z</time>
      </trkpt>
      <trkpt lat="43.51896" lon="6.37272">
        <ele>230.15</ele>
        <time>2015-09-14T08:16:45Z</time>
      </trkpt>
      <trkpt lat="43.51913" lon="6.37265">
        <ele>230.07</ele>
        <time>2015-09-14T08:17:05Z</time>
      </trkpt>
      <trkpt lat="43.51931" lon="6.3726">
        <ele>229.77</ele>
        <time>2015-09-14T08:17:24Z</time>
      </trkpt>
      <trkpt lat="43.51946" lon="6.37278">
        <ele>229.77</ele>
        <time>2015-09-14T08:17:40Z</time>
      </trkpt>
      <trkpt lat="43.51957" lon="6.37298">
        <ele>231.28</ele>
        <time>2015-09-14T08:17:59Z</time>
      </trkpt>
      <trkpt lat="43.51966" lon="6.37319">
        <ele>232.67</ele>
        <time>2015-09-14T08:18:17Z</time>
      </trkpt>
      <trkpt lat="43.51982" lon="6.37332">
        <ele>234.11</ele>
        <time>2015-09-14T08:18:38Z</time>
      </trkpt>
      <trkpt lat="43.51999" lon="6.37338">
        <ele>234.86</ele>
        <time>2015-09-14T08:18:55Z</time>
      </trkpt>
      <trkpt lat="43.52017" lon="6.37333">
        <ele>235.63</ele>
        <time>2015-09-14T08:19:14Z</time>
      </trkpt>
      <trkpt lat="43.52035" lon="6.37335">
        <ele>236.64</ele>
        <time>2015-09-14T08:19:30Z</time>
      </trkpt>
      <trkpt lat="43.52054" lon="6.37338">
        <ele>238.17</ele>
        <time>2015-09-14T08:19:53Z</time>
      </trkpt>
      <trkpt lat="43.52073" lon="6.37334">
        <ele>239.45</ele>
        <time>2015-09-14T08:20:13Z</time>
      </trkpt>
      <trkpt lat="43.52091" lon="6.37336">
        <ele>241.66</ele>
        <time>2015-09-14T08:20:34Z</time>
      </trkpt>
      <trkpt lat="43.52109" lon="6.37341">
        <ele>243.59</ele>
        <time>2015-09-14T08:20:58Z</time>
      </trkpt>
      <trkpt lat="43.52127" lon="6.3734">
        <ele>246.54</ele>
        <time>2015-09-14T08:21:19Z</time>
      </trkpt>
      <trkpt lat="43.52144" lon="6.37331">
        <ele>246.59</ele>
        <time>2015-09-14T08:22:22Z</time>
      </trkpt>
      <trkpt lat="43.52162" lon="6.37327">
        <ele>246.85</ele>
        <time>2015-09-14T08:22:38Z</time>
      </trkpt>
      <trkpt lat="43.52181" lon="6.37324">
        <ele>248.55</ele>
        <time>2015-09-14T08:22:59Z</time>
      </trkpt>
      <trkpt lat="43.52198" lon="6.37313">
        <ele>250.05</ele>
        <time>2015-09-14T08:23:15Z</time>
      </trkpt>
      <trkpt lat="43.52216" lon="6.37307">
        <ele>251.12</ele>
        <time>2015-09-14T08:23:32Z</time>
      </trkpt>
      <trkpt lat="43.52234" lon="6.37301">
        <ele>251.67</ele>
        <time>2015-09-14T08:23:47Z</time>
      </trkpt>
      <trkpt lat="43.52251" lon="6.37293">
        <ele>252.69</ele>
        <time>2015-09-14T08:24:02Z</time>
      </trkpt>
      <trkpt lat="43.52268" lon="6.37283">
        <ele>252.39</ele>
        <time>2015-09-14T08:24:19Z</time>
      </trkpt>
      <trkpt lat="43.52283" lon="6.37269">
        <ele>253.06</ele>
        <time>2015-09-14T08:24:52Z</time>
      </trkpt>
      <trkpt lat="43.52301" lon="6.37266">
        <ele>253.07</ele>
        <time>2015-09-14T08:25:28Z</time>
      </trkpt>
      <trkpt lat="43.52317" lon="6.37253">
        <ele>253.81</ele>
        <time>2015-09-14T08:25:47Z</time>
      </trkpt>
      <trkpt lat="43.52332" lon="6.37238">
        <ele>252.86</ele>
        <time>2015-09-14T08:26:11Z</time>
      </trkpt>
      <trkpt lat="43.52345" lon="6.37219">
        <ele>251.05</ele>
        <time>2015-09-14T08:26:25Z</time>
      </trkpt>
      <trkpt lat="43.52355" lon="6.37198">
        <ele>250.77</ele>
        <time>2015-09-14T08:26:50Z</time>
      </trkpt>
      <trkpt lat="43.52373" lon="6.3719">
        <ele>251.19</ele>
        <time>2015-09-14T08:27:09Z</time>
      </trkpt>
      <trkpt lat="43.5239" lon="6.37179">
        <ele>252.69</ele>
        <time>2015-09-14T08:27:33Z</time>
      </trkpt>
      <trkpt lat="43.52407" lon="6.3717">
        <ele>253.51</ele>
        <time>2015-09-14T08:27:53Z</time>
      </trkpt>
      <trkpt lat="43.52423" lon="6.37158">
        <ele>256.55</ele>
        <time>2015-09-14T08:28:18Z</time>
      </trkpt>
      <trkpt lat="43.52442" lon="6.37152">
        <ele>257.77</ele>
        <time>2015-09-14T08:28:33Z</time>
      </trkpt>
      <trkpt lat="43.52459" lon="6.3716">
        <ele>259.43</ele>
        <time>2015-09-14T08:28:50Z</time>
      </trkpt>
      <trkpt lat="43.52475" lon="6.37176">
        <ele>261.09</ele>
        <time>2015-09-14T08:29:06Z</time>
      </trkpt>
      <trkpt lat="43.52488" lon="6.37196">
        <ele>262.22</ele>
        <time>2015-09-14T08:29:25Z</time>
      </trkpt>
      <trkpt lat="43.52506" lon="6.37204">
        <ele>263.66</ele>
        <time>2015-09-14T08:29:43Z</time>
      </trkpt>
      <trkpt lat="43.52523" lon="6.37211">
        <ele>264.77</ele>
        <time>2015-09-14T08:29:57Z</time>
      </trkpt>
      <trkpt lat="43.5254" lon="6.37222">
        <ele>265.72</ele>
        <time>2015-09-14T08:30:17Z</time>
      </trkpt>
      <trkpt lat="43.52555" lon="6.37237">
        <ele>266.62</ele>
        <time>2015-09-14T08:30:34Z</time>
      </trkpt>
      <trkpt lat="43.52564" lon="6.37259">
        <ele>268.67</ele>
        <time>2015-09-14T08:31:00Z</time>
      </trkpt>
      <trkpt lat="43.52569" lon="6.37283">
        <ele>270.73</ele>
        <time>2015-09-14T08:31:21Z</time>
      </trkpt>
      <trkpt lat="43.52571" lon="6.37308">
        <ele>271.9</ele>
        <time>2015-09-14T08:31:45Z</time>
      </trkpt>
      <trkpt lat="43.5258" lon="6.37332">
        <ele>273.04</ele>
        <time>2015-09-14T08:32:08Z</time>
      </trkpt>
      <trkpt lat="43.52597" lon="6.37341">
        <ele>276.61</ele>
        <time>2015-09-14T08:32:31Z</time>
      </trkpt>
      <trkpt lat="43.52616" lon="6.3734">
        <ele>277.09</ele>
        <time>2015-09-14T08:32:48Z</time>
      </trkpt>
      <trkpt lat="43.52634" lon="6.37344">
        <ele>279.11</ele>
        <time>2015-09-14T08:33:14Z</time>
      </trkpt>
      <trkpt lat="43.5265" lon="6.37357">
        <ele>281.59</ele>
        <time>2015-09-14T08:33:31Z</time>
      </trkpt>
      <trkpt lat="43.52668" lon="6.37367">
        <ele>283.07</ele>
        <time>2015-09-14T08:33:49Z</time>
      </trkpt>
      <trkpt lat="43.52685" lon="6.37379">
        <ele>286.2</ele>
        <time>2015-09-14T08:34:09Z</time>
      </trkpt>
      <trkpt lat="43.52702" lon="6.37388">
        <ele>288.62</ele>
        <time>2015-09-14T08:34:28Z</time>
      </trkpt>
      <trkpt lat="43.52718" lon="6.37401">
        <ele>290.17</ele>
        <time>2015-09-14T08:34:49Z</time>
      </trkpt>
      <trkpt lat="43.52732" lon="6.37418">
        <ele>290.17</ele>
        <time>2015-09-14T08:35:07Z</time>
      </trkpt>
      <trkpt lat="43.52747" lon="6.37432">
        <ele>292.28</ele>
        <time>2015-09-14T08:35:26Z</time>
      </trkpt>
      <trkpt lat="43.52759" lon="6.37451">
        <ele>293.21</ele>
        <time>2015-09-14T08:35:45Z</time>
      </trkpt>
      <trkpt lat="43.52769" lon="6.37473">
        <ele>295.09</ele>
        <time>2015-09-14T08:36:07Z</time>
      </trkpt>
      <trkpt lat="43.52782" lon="6.37491">
        <ele>296.59</ele>
        <time>2015-09-14T08:36:26Z</time>
      </trkpt>
      <trkpt lat="43.52797" lon="6.37506">
        <ele>298.31</ele>
        <time>2015-09-14T08:36:47Z</time>
      </trkpt>
      <trkpt lat="43.52807" lon="6.37528">
        <ele>300.23</ele>
        <time>2015-09-14T08:37:03Z</time>
      </trkpt>
      <trkpt lat="43.52821" lon="6.37544">
        <ele>301.5</ele>
        <time>2015-09-14T08:37:17Z</time>
      </trkpt>
      <trkpt lat="43.52838" lon="6.37555">
        <ele>302.36</ele>
        <time>2015-09-14T08:37:34Z</time>
      </trkpt>
      <trkpt lat="43.52854" lon="6.3757">
        <ele>302.54</ele>
        <time>2015-09-14T08:37:54Z</time>
      </trkpt>
      <trkpt lat="43.52872" lon="6.37574">
        <ele>301.66</ele>
        <time>2015-09-14T08:38:12Z</time>
      </trkpt>
      <trkpt lat="43.52891" lon="6.37572">
        <ele>301.66</ele>
        <time>2015-09-14T08:38:29Z</time>
      </trkpt>
      <trkpt lat="43.52909" lon="6.37575">
        <ele>300.63</ele>
        <time>2015-09-14T08:38:44Z</time>
      </trkpt>
      <trkpt lat="43.52926" lon="6.37586">
        <ele>301.47</ele>
        <time>2015-09-14T08:39:04Z</time>
      </trkpt>
      <trkpt lat="43.52939" lon="6.37605">
        <ele>302.02</ele>
        <time>2015-09-14T08:39:21Z</time>
      </trkpt>
      <trkpt lat="43.52951" lon="6.37624">
        <ele>301.69</ele>
        <time>2015-09-14T08:39:39Z</time>
      </trkpt>
      <trkpt lat="43.52963" lon="6.37644">
        <ele>301.05</ele>
        <time>2015-09-14T08:39:57Z</time>
      </trkpt>
      <trkpt lat="43.52976" lon="6.37662">
        <ele>301.62</ele>
        <time>2015-09-14T08:40:18Z</time>
      </trkpt>
      <trkpt lat="43.5298" lon="6.37686">
        <ele>301.77</ele>
        <time>2015-09-14T08:40:43Z</time>
      </trkpt>
      <trkpt lat="43.52974" lon="6.37711">
        <ele>299.33</ele>
        <time>2015-09-14T08:41:06Z</time>
      </trkpt>
      <trkpt lat="43.52964" lon="6.37733">
        <ele>296.97</ele>
        <time>2015-09-14T08:41:24Z</time>
      </trkpt>
      <trkpt lat="43.52952" lon="6.37751">
        <ele>292.69</ele>
        <time>2015-09-14T08:41:48Z</time>
      </trkpt>
      <trkpt lat="43.52939" lon="6.37768">
        <ele>288.28</ele>
        <time>2015-09-14T08:42:07Z</time>
      </trkpt>
      <trkpt lat="43.52935" lon="6.37793">
        <ele>285.23</ele>
        <time>2015-09-14T08:42:31Z</time>
      </trkpt>
      <trkpt lat="43.52949" lon="6.3781">
        <ele>284.3</ele>
        <time>2015-09-14T08:42:51Z</time>
      </trkpt>
      <trkpt lat="43.52965" lon="6.37823">
        <ele>283.29</ele>
        <time>2015-09-14T08:43:09Z</time>
      </trkpt>
      <trkpt lat="43.52978" lon="6.37841">
        <ele>281.47</ele>
        <time>2015-09-14T08:43:33Z</time>
      </trkpt>
      <trkpt lat="43.52985" lon="6.37863">
        <ele>278.74</ele>
        <time>2015-09-14T08:43:56Z</time>
      </trkpt>
      <trkpt lat="43.52999" lon="6.3788">
        <ele>278.09</ele>
        <time>2015-09-14T08:47:33Z</time>
      </trkpt>
      <trkpt lat="43.53004" lon="6.37905">
        <ele>278.98</ele>
        <time>2015-09-14T08:47:58Z</time>
      </trkpt>
      <trkpt lat="43.53022" lon="6.37896">
        <ele>283.34</ele>
        <time>2015-09-14T08:48:41Z</time>
      </trkpt>
      <trkpt lat="43.5301" lon="6.37915">
        <ele>283.26</ele>
        <time>2015-09-14T08:49:25Z</time>
      </trkpt>
      <trkpt lat="43.52997" lon="6.37933">
        <ele>284.13</ele>
        <time>2015-09-14T08:49:45Z</time>
      </trkpt>
      <trkpt lat="43.52989" lon="6.37957">
        <ele>284.41</ele>
        <time>2015-09-14T08:50:05Z</time>
      </trkpt>
      <trkpt lat="43.52984" lon="6.37981">
        <ele>286.6</ele>
        <time>2015-09-14T08:50:31Z</time>
      </trkpt>
      <trkpt lat="43.52973" lon="6.38001">
        <ele>287.4</ele>
        <time>2015-09-14T08:50:54Z</time>
      </trkpt>
      <trkpt lat="43.52961" lon="6.3802">
        <ele>291.85</ele>
        <time>2015-09-14T08:51:17Z</time>
      </trkpt>
      <trkpt lat="43.52951" lon="6.38043">
        <ele>296.39</ele>
        <time>2015-09-14T08:51:42Z</time>
      </trkpt>
      <trkpt lat="43.5294" lon="6.38063">
        <ele>299.79</ele>
        <time>2015-09-14T08:52:09Z</time>
      </trkpt>
      <trkpt lat="43.5293" lon="6.38085">
        <ele>302.06</ele>
        <time>2015-09-14T08:52:32Z</time>
      </trkpt>
      <trkpt lat="43.5292" lon="6.38107">
        <ele>305.67</ele>
        <time>2015-09-14T08:52:48Z</time>
      </trkpt>
      <trkpt lat="43.52922" lon="6.38133">
        <ele>306.81</ele>
        <time>2015-09-14T08:53:07Z</time>
      </trkpt>
      <trkpt lat="43.52924" lon="6.38158">
        <ele>307.31</ele>
        <time>2015-09-14T08:53:26Z</time>
      </trkpt>
      <trkpt lat="43.52925" lon="6.38183">
        <ele>308.59</ele>
        <time>2015-09-14T08:53:48Z</time>
      </trkpt>
      <trkpt lat="43.52927" lon="6.38209">
        <ele>310.33</ele>
        <time>2015-09-14T08:54:10Z</time>
      </trkpt>
      <trkpt lat="43.52929" lon="6.38235">
        <ele>312.57</ele>
        <time>2015-09-14T08:54:30Z</time>
      </trkpt>
      <trkpt lat="43.52931" lon="6.3826">
        <ele>313.4</ele>
        <time>2015-09-14T08:54:47Z</time>
      </trkpt>
      <trkpt lat="43.52933" lon="6.38285">
        <ele>314.53</ele>
        <time>2015-09-14T08:55:05Z</time>
      </trkpt>
      <trkpt lat="43.52942" lon="6.38309">
        <ele>314.98</ele>
        <time>2015-09-14T08:55:22Z</time>
      </trkpt>
      <trkpt lat="43.52954" lon="6.38327">
        <ele>316.33</ele>
        <time>2015-09-14T08:55:39Z</time>
      </trkpt>
      <trkpt lat="43.52967" lon="6.38345">
        <ele>316.21</ele>
        <time>2015-09-14T08:55:55Z</time>
      </trkpt>
      <trkpt lat="43.52981" lon="6.38363">
        <ele>316.53</ele>
        <time>2015-09-14T08:56:10Z</time>
      </trkpt>
      <trkpt lat="43.52994" lon="6.38381">
        <ele>317.96</ele>
        <time>2015-09-14T08:56:27Z</time>
      </trkpt>
      <trkpt lat="43.53008" lon="6.38396">
        <ele>319.01</ele>
        <time>2015-09-14T08:56:44Z</time>
      </trkpt>
      <trkpt lat="43.5302" lon="6.38415">
        <ele>319.21</ele>
        <time>2015-09-14T08:57:03Z</time>
      </trkpt>
      <trkpt lat="43.5303" lon="6.38436">
        <ele>318.75</ele>
        <time>2015-09-14T08:57:20Z</time>
      </trkpt>
      <trkpt lat="43.53036" lon="6.3846">
        <ele>318.52</ele>
        <time>2015-09-14T08:57:37Z</time>
      </trkpt>
      <trkpt lat="43.53039" lon="6.38484">
        <ele>317.69</ele>
        <time>2015-09-14T08:57:57Z</time>
      </trkpt>
      <trkpt lat="43.53036" lon="6.38509">
        <ele>317.29</ele>
        <time>2015-09-14T08:58:16Z</time>
      </trkpt>
      <trkpt lat="43.5303" lon="6.38533">
        <ele>316.89</ele>
        <time>2015-09-14T08:58:33Z</time>
      </trkpt>
      <trkpt lat="43.53034" lon="6.38558">
        <ele>315.46</ele>
        <time>2015-09-14T08:58:50Z</time>
      </trkpt>
      <trkpt lat="43.53049" lon="6.38571">
        <ele>314.36</ele>
        <time>2015-09-14T08:59:08Z</time>
      </trkpt>
      <trkpt lat="43.53066" lon="6.38586">
        <ele>314.34</ele>
        <time>2015-09-14T08:59:25Z</time>
      </trkpt>
      <trkpt lat="43.53073" lon="6.38609">
        <ele>313.9</ele>
        <time>2015-09-14T08:59:42Z</time>
      </trkpt>
      <trkpt lat="43.53082" lon="6.38631">
        <ele>313.92</ele>
        <time>2015-09-14T09:00:03Z</time>
      </trkpt>
      <trkpt lat="43.53091" lon="6.38654">
        <ele>312.06</ele>
        <time>2015-09-14T09:00:21Z</time>
      </trkpt>
      <trkpt lat="43.53098" lon="6.38677">
        <ele>310.62</ele>
        <time>2015-09-14T09:00:38Z</time>
      </trkpt>
      <trkpt lat="43.53107" lon="6.38698">
        <ele>309.81</ele>
        <time>2015-09-14T09:00:54Z</time>
      </trkpt>
      <trkpt lat="43.53113" lon="6.38723">
        <ele>308.56</ele>
        <time>2015-09-14T09:01:13Z</time>
      </trkpt>
      <trkpt lat="43.53125" lon="6.38742">
        <ele>307.74</ele>
        <time>2015-09-14T09:01:30Z</time>
      </trkpt>
      <trkpt lat="43.53137" lon="6.38762">
        <ele>306.99</ele>
        <time>2015-09-14T09:01:53Z</time>
      </trkpt>
      <trkpt lat="43.53144" lon="6.38785">
        <ele>306.52</ele>
        <time>2015-09-14T09:02:14Z</time>
      </trkpt>
      <trkpt lat="43.53149" lon="6.3881">
        <ele>306.98</ele>
        <time>2015-09-14T09:02:33Z</time>
      </trkpt>
      <trkpt lat="43.53157" lon="6.38832">
        <ele>307.93</ele>
        <time>2015-09-14T09:02:53Z</time>
      </trkpt>
      <trkpt lat="43.53165" lon="6.38856">
        <ele>308.43</ele>
        <time>2015-09-14T09:03:12Z</time>
      </trkpt>
      <trkpt lat="43.53173" lon="6.38878">
        <ele>310.14</ele>
        <time>2015-09-14T09:03:29Z</time>
      </trkpt>
      <trkpt lat="43.53179" lon="6.38903">
        <ele>311.55</ele>
        <time>2015-09-14T09:03:46Z</time>
      </trkpt>
      <trkpt lat="43.53172" lon="6.38926">
        <ele>312.82</ele>
        <time>2015-09-14T09:04:02Z</time>
      </trkpt>
      <trkpt lat="43.53168" lon="6.38952">
        <ele>313.24</ele>
        <time>2015-09-14T09:04:19Z</time>
      </trkpt>
      <trkpt lat="43.53162" lon="6.38976">
        <ele>314.57</ele>
        <time>2015-09-14T09:04:38Z</time>
      </trkpt>
      <trkpt lat="43.53154" lon="6.39">
        <ele>314.45</ele>
        <time>2015-09-14T09:04:55Z</time>
      </trkpt>
      <trkpt lat="43.53149" lon="6.39024">
        <ele>314.43</ele>
        <time>2015-09-14T09:05:14Z</time>
      </trkpt>
      <trkpt lat="43.53146" lon="6.3905">
        <ele>316.01</ele>
        <time>2015-09-14T09:05:32Z</time>
      </trkpt>
      <trkpt lat="43.53139" lon="6.39074">
        <ele>317.24</ele>
        <time>2015-09-14T09:05:50Z</time>
      </trkpt>
      <trkpt lat="43.53135" lon="6.39099">
        <ele>318.99</ele>
        <time>2015-09-14T09:06:08Z</time>
      </trkpt>
      <trkpt lat="43.53143" lon="6.39122">
        <ele>319.83</ele>
        <time>2015-09-14T09:06:27Z</time>
      </trkpt>
      <trkpt lat="43.53158" lon="6.39136">
        <ele>321.73</ele>
        <time>2015-09-14T09:06:45Z</time>
      </trkpt>
      <trkpt lat="43.53172" lon="6.39152">
        <ele>324.02</ele>
        <time>2015-09-14T09:07:02Z</time>
      </trkpt>
      <trkpt lat="43.53186" lon="6.39168">
        <ele>326.29</ele>
        <time>2015-09-14T09:07:21Z</time>
      </trkpt>
      <trkpt lat="43.53199" lon="6.39187">
        <ele>327.34</ele>
        <time>2015-09-14T09:07:40Z</time>
      </trkpt>
      <trkpt lat="43.53209" lon="6.39209">
        <ele>327.96</ele>
        <time>2015-09-14T09:07:59Z</time>
      </trkpt>
      <trkpt lat="43.53222" lon="6.39228">
        <ele>328.75</ele>
        <time>2015-09-14T09:08:15Z</time>
      </trkpt>
      <trkpt lat="43.53233" lon="6.39248">
        <ele>330.66</ele>
        <time>2015-09-14T09:08:34Z</time>
      </trkpt>
      <trkpt lat="43.53242" lon="6.3927">
        <ele>331.76</ele>
        <time>2015-09-14T09:08:51Z</time>
      </trkpt>
      <trkpt lat="43.53252" lon="6.39292">
        <ele>333.05</ele>
        <time>2015-09-14T09:09:08Z</time>
      </trkpt>
      <trkpt lat="43.53261" lon="6.39315">
        <ele>333.71</ele>
        <time>2015-09-14T09:09:25Z</time>
      </trkpt>
      <trkpt lat="43.5327" lon="6.39336">
        <ele>335.34</ele>
        <time>2015-09-14T09:09:40Z</time>
      </trkpt>
      <trkpt lat="43.53288" lon="6.39338">
        <ele>336.75</ele>
        <time>2015-09-14T09:10:15Z</time>
      </trkpt>
      <trkpt lat="43.53304" lon="6.39325">
        <ele>337.34</ele>
        <time>2015-09-14T09:10:40Z</time>
      </trkpt>
      <trkpt lat="43.5332" lon="6.39315">
        <ele>337.29</ele>
        <time>2015-09-14T09:10:56Z</time>
      </trkpt>
      <trkpt lat="43.53337" lon="6.39303">
        <ele>337.26</ele>
        <time>2015-09-14T09:11:14Z</time>
      </trkpt>
      <trkpt lat="43.53353" lon="6.39292">
        <ele>337.19</ele>
        <time>2015-09-14T09:11:31Z</time>
      </trkpt>
      <trkpt lat="43.5337" lon="6.3928">
        <ele>336.92</ele>
        <time>2015-09-14T09:11:47Z</time>
      </trkpt>
      <trkpt lat="43.53388" lon="6.39273">
        <ele>336.08</ele>
        <time>2015-09-14T09:12:04Z</time>
      </trkpt>
      <trkpt lat="43.53406" lon="6.39265">
        <ele>336.26</ele>
        <time>2015-09-14T09:12:21Z</time>
      </trkpt>
      <trkpt lat="43.53422" lon="6.39252">
        <ele>336</ele>
        <time>2015-09-14T09:12:36Z</time>
      </trkpt>
      <trkpt lat="43.53439" lon="6.39242">
        <ele>335.61</ele>
        <time>2015-09-14T09:12:53Z</time>
      </trkpt>
      <trkpt lat="43.53458" lon="6.39242">
        <ele>334.44</ele>
        <time>2015-09-14T09:13:11Z</time>
      </trkpt>
      <trkpt lat="43.53471" lon="6.3926">
        <ele>332.9</ele>
        <time>2015-09-14T09:13:34Z</time>
      </trkpt>
      <trkpt lat="43.53473" lon="6.39285">
        <ele>331</ele>
        <time>2015-09-14T09:13:52Z</time>
      </trkpt>
      <trkpt lat="43.53469" lon="6.39311">
        <ele>328.1</ele>
        <time>2015-09-14T09:14:13Z</time>
      </trkpt>
      <trkpt lat="43.53486" lon="6.39301">
        <ele>323.53</ele>
        <time>2015-09-14T09:15:37Z</time>
      </trkpt>
      <trkpt lat="43.53494" lon="6.39278">
        <ele>323.99</ele>
        <time>2015-09-14T09:15:55Z</time>
      </trkpt>
      <trkpt lat="43.53504" lon="6.39256">
        <ele>323.06</ele>
        <time>2015-09-14T09:16:11Z</time>
      </trkpt>
      <trkpt lat="43.53513" lon="6.39233">
        <ele>322.46</ele>
        <time>2015-09-14T09:16:27Z</time>
      </trkpt>
      <trkpt lat="43.53523" lon="6.39211">
        <ele>322.24</ele>
        <time>2015-09-14T09:16:47Z</time>
      </trkpt>
      <trkpt lat="43.53533" lon="6.3919">
        <ele>322.44</ele>
        <time>2015-09-14T09:17:04Z</time>
      </trkpt>
    </trkseg>
  </trk>
</gpx>